createdAt,value
2022-07-27T00:00:00.016Z,98298.27
2022-07-27T00:01:11.860Z,98297.77
2022-07-27T00:02:20.048Z,98294.75
2022-07-27T00:03:29.599Z,98295.63
2022-07-27T00:04:40.325Z,98295.02
2022-07-27T00:05:49.804Z,98293.29
2022-07-27T00:07:00.805Z,98298.48
2022-07-27T00:08:11.191Z,98291.60
2022-07-27T00:09:29.455Z,98292.65
2022-07-27T00:10:57.520Z,98298.58
2022-07-27T00:12:23.450Z,98295.95
2022-07-27T00:13:33.333Z,98298.41
2022-07-27T00:14:41.131Z,98300.30
2022-07-27T00:15:48.718Z,98299.66
2022-07-27T00:16:56.692Z,98298.79
2022-07-27T00:18:04.094Z,98297.63
2022-07-27T00:19:12.158Z,98300.48
2022-07-27T00:20:27.041Z,98299.58
2022-07-27T00:21:44.827Z,98295.95
2022-07-27T00:22:57.032Z,98298.59
2022-07-27T00:24:04.359Z,98292.64
2022-07-27T00:25:12.324Z,98297.29
2022-07-27T00:26:27.022Z,98294.02
2022-07-27T00:27:35.310Z,98295.44
2022-07-27T00:28:42.787Z,98298.80
2022-07-27T00:29:51.642Z,98297.94
2022-07-27T00:31:02.166Z,98297.30
2022-07-27T00:32:12.827Z,98299.10
2022-07-27T00:33:20.039Z,98300.98
2022-07-27T00:34:27.348Z,98299.98
2022-07-27T00:35:37.302Z,98301.52
2022-07-27T00:36:46.004Z,98302.94
2022-07-27T00:37:59.142Z,98298.02
2022-07-27T00:39:10.002Z,98297.27
2022-07-27T00:40:17.770Z,98300.20
2022-07-27T00:41:28.276Z,98300.55
2022-07-27T00:42:36.686Z,98295.95
2022-07-27T00:43:59.583Z,98299.80
2022-07-27T00:45:08.003Z,98295.60
2022-07-27T00:46:15.409Z,98297.51
2022-07-27T00:47:22.910Z,98303.10
2022-07-27T00:48:31.843Z,98303.09
2022-07-27T00:49:42.641Z,98303.70
2022-07-27T00:50:51.679Z,98304.98
2022-07-27T00:52:01.526Z,98305.90
2022-07-27T00:53:27.547Z,98305.14
2022-07-27T00:54:41.828Z,98301.13
2022-07-27T00:55:55.790Z,98305.78
2022-07-27T00:57:07.120Z,98304.48
2022-07-27T00:58:18.733Z,98308.85
2022-07-27T00:59:28.323Z,98306.51
2022-07-27T01:00:39.337Z,98308.42
2022-07-27T01:01:47.674Z,98308.09
2022-07-27T01:02:57.450Z,98310.48
2022-07-27T01:04:07.603Z,98314.52
2022-07-27T01:10:14.462Z,98317.89
2022-07-27T01:11:29.411Z,98315.66
2022-07-27T01:12:46.202Z,98319.35
2022-07-27T01:13:55.253Z,98318.44
2022-07-27T01:15:07.492Z,98321.73
2022-07-27T01:18:01.931Z,98324.05
2022-07-27T01:19:14.475Z,98324.17
2022-07-27T01:20:26.144Z,98324.75
2022-07-27T01:21:39.958Z,98322.35
2022-07-27T01:22:48.755Z,98324.05
2022-07-27T01:23:57.248Z,98329.05
2022-07-27T01:25:05.060Z,98332.21
2022-07-27T01:26:16.898Z,98332.68
2022-07-27T01:29:06.584Z,98337.14
2022-07-27T01:30:34.357Z,98338.74
2022-07-27T01:31:43.127Z,98342.35
2022-07-27T01:32:53.251Z,98340.88
2022-07-27T01:34:05.139Z,98344.26
2022-07-27T01:35:14.712Z,98344.91
2022-07-27T01:36:22.390Z,98345.56
2022-07-27T01:37:30.786Z,98345.15
2022-07-27T01:38:38.569Z,98347.80
2022-07-27T01:39:46.819Z,98346.74
2022-07-27T01:40:55.410Z,98350.89
2022-07-27T01:42:04.084Z,98351.48
2022-07-27T01:43:18.020Z,98352.67
2022-07-27T01:44:33.810Z,98349.45
2022-07-27T01:46:01.452Z,98353.86
2022-07-27T01:47:29.325Z,98349.13
2022-07-27T01:48:47.603Z,98351.86
2022-07-27T01:49:56.435Z,98351.66
2022-07-27T01:51:11.953Z,98351.01
2022-07-27T01:52:21.836Z,98351.87
2022-07-27T01:53:48.576Z,98356.64
2022-07-27T01:55:02.508Z,98359.93
2022-07-27T01:56:44.400Z,98358.45
2022-07-27T01:59:45.730Z,98363.39
2022-07-27T02:00:58.746Z,98368.00
2022-07-27T02:02:12.796Z,98364.23
2022-07-27T02:03:23.509Z,98369.08
2022-07-27T02:04:55.058Z,98371.38
2022-07-27T02:06:08.142Z,98370.72
2022-07-27T02:07:20.575Z,98372.26
2022-07-27T02:08:28.908Z,98373.64
2022-07-27T02:09:39.574Z,98373.05
2022-07-27T02:11:11.239Z,98373.27
2022-07-27T02:12:53.389Z,98376.45
2022-07-27T02:14:28.938Z,98379.35
2022-07-27T02:15:54.664Z,98378.83
2022-07-27T02:17:06.119Z,98380.89
2022-07-27T02:18:26.779Z,98382.11
2022-07-27T02:19:56.296Z,98387.17
2022-07-27T02:21:07.973Z,98390.29
2022-07-27T02:24:18.581Z,98394.29
2022-07-27T02:25:26.162Z,98393.84
2022-07-27T02:26:36.969Z,98394.38
2022-07-27T02:27:48.386Z,98396.40
2022-07-27T02:28:58.116Z,98397.69
2022-07-27T02:30:08.718Z,98399.52
2022-07-27T02:31:27.070Z,98400.07
2022-07-27T02:32:56.031Z,98400.05
2022-07-27T02:34:07.187Z,98402.30
2022-07-27T02:35:20.429Z,98402.58
2022-07-27T02:38:53.842Z,98399.14
2022-07-27T02:40:44.390Z,98398.67
2022-07-27T02:41:53.685Z,98403.14
2022-07-27T02:43:16.102Z,98402.56
2022-07-27T02:44:46.078Z,98406.98
2022-07-27T02:45:55.087Z,98405.40
2022-07-27T02:47:15.708Z,98405.69
2022-07-27T02:48:32.962Z,98405.88
2022-07-27T02:49:45.288Z,98410.95
2022-07-27T02:50:53.529Z,98408.95
2022-07-27T02:52:01.517Z,98409.27
2022-07-27T02:53:13.072Z,98414.09
2022-07-27T02:54:25.829Z,98414.32
2022-07-27T02:55:33.143Z,98413.83
2022-07-27T02:56:40.543Z,98420.08
2022-07-27T02:57:50.888Z,98424.83
2022-07-27T02:59:05.014Z,98423.46
2022-07-27T03:00:18.626Z,98422.74
2022-07-27T03:01:26.499Z,98422.86
2022-07-27T03:02:34.046Z,98427.85
2022-07-27T03:03:43.796Z,98427.73
2022-07-27T03:04:53.008Z,98430.63
2022-07-27T03:06:03.983Z,98428.58
2022-07-27T03:07:14.647Z,98427.10
2022-07-27T03:08:23.637Z,98426.91
2022-07-27T03:09:33.342Z,98428.96
2022-07-27T03:10:48.698Z,98428.73
2022-07-27T03:11:58.846Z,98428.96
2022-07-27T03:13:08.927Z,98430.11
2022-07-27T03:14:16.803Z,98432.34
2022-07-27T03:15:26.873Z,98433.13
2022-07-27T03:16:34.701Z,98433.51
2022-07-27T03:17:42.399Z,98432.38
2022-07-27T03:18:53.405Z,98434.33
2022-07-27T03:20:03.640Z,98436.88
2022-07-27T03:21:14.556Z,98434.65
2022-07-27T03:22:24.641Z,98435.16
2022-07-27T03:23:32.023Z,98441.15
2022-07-27T03:24:41.401Z,98445.65
2022-07-27T03:25:51.171Z,98445.37
2022-07-27T03:27:00.031Z,98450.48
2022-07-27T03:28:08.973Z,98455.36
2022-07-27T03:29:16.648Z,98458.48
2022-07-27T03:30:25.245Z,98458.90
2022-07-27T03:31:34.942Z,98457.77
2022-07-27T03:32:50.948Z,98458.13
2022-07-27T03:34:03.257Z,98459.45
2022-07-27T03:35:25.170Z,98461.33
2022-07-27T03:36:42.226Z,98464.62
2022-07-27T03:37:50.130Z,98466.73
2022-07-27T03:39:17.130Z,98467.55
2022-07-27T03:40:27.304Z,98466.42
2022-07-27T03:41:35.429Z,98472.06
2022-07-27T03:42:46.499Z,98472.20
2022-07-27T03:43:57.206Z,98476.17
2022-07-27T03:45:10.557Z,98476.73
2022-07-27T03:46:19.832Z,98479.95
2022-07-27T03:47:31.600Z,98478.64
2022-07-27T03:48:41.107Z,98481.45
2022-07-27T03:49:50.303Z,98484.73
2022-07-27T03:51:00.053Z,98488.27
2022-07-27T03:52:17.638Z,98488.00
2022-07-27T03:53:49.886Z,98491.22
2022-07-27T03:54:59.339Z,98491.09
2022-07-27T03:56:24.964Z,98492.88
2022-07-27T03:57:43.493Z,98493.00
2022-07-27T03:59:04.993Z,98496.05
2022-07-27T04:04:30.256Z,98498.55
2022-07-27T04:05:45.347Z,98496.71
2022-07-27T04:07:11.372Z,98495.37
2022-07-27T04:08:37.105Z,98499.98
2022-07-27T04:16:48.031Z,98506.34
2022-07-27T04:18:28.008Z,98505.88
2022-07-27T04:19:38.368Z,98509.10
2022-07-27T04:20:46.603Z,98512.62
2022-07-27T04:21:57.654Z,98513.56
2022-07-27T04:23:05.918Z,98514.52
2022-07-27T04:24:13.712Z,98517.93
2022-07-27T04:25:21.794Z,98516.58
2022-07-27T04:26:30.654Z,98522.42
2022-07-27T04:27:40.555Z,98525.80
2022-07-27T04:28:52.116Z,98529.24
2022-07-27T04:30:08.281Z,98532.01
2022-07-27T04:31:18.801Z,98533.73
2022-07-27T04:32:26.257Z,98536.04
2022-07-27T04:33:33.990Z,98537.24
2022-07-27T04:34:40.845Z,98538.98
2022-07-27T04:35:48.526Z,98540.81
2022-07-27T04:36:57.126Z,98547.03
2022-07-27T04:38:04.238Z,98547.66
2022-07-27T04:39:11.780Z,98550.70
2022-07-27T04:46:13.165Z,98556.80
2022-07-27T04:47:28.157Z,98557.90
2022-07-27T04:48:48.758Z,98558.41
2022-07-27T04:49:57.766Z,98561.35
2022-07-27T04:51:06.484Z,98562.91
2022-07-27T04:52:17.450Z,98563.98
2022-07-27T04:53:25.649Z,98565.46
2022-07-27T04:54:33.084Z,98564.66
2022-07-27T04:55:43.634Z,98568.63
2022-07-27T04:56:51.038Z,98569.11
2022-07-27T04:57:58.466Z,98568.80
2022-07-27T04:59:07.091Z,98570.17
2022-07-27T05:00:17.488Z,98567.52
2022-07-27T05:01:30.331Z,98568.29
2022-07-27T05:02:42.411Z,98569.34
2022-07-27T05:03:50.390Z,98567.05
2022-07-27T05:05:01.076Z,98567.64
2022-07-27T05:06:09.615Z,98564.95
2022-07-27T05:07:16.977Z,98570.77
2022-07-27T05:08:24.688Z,98577.45
2022-07-27T05:09:35.589Z,98578.59
2022-07-27T05:10:43.133Z,98583.11
2022-07-27T05:11:51.455Z,98588.20
2022-07-27T05:12:59.956Z,98583.57
2022-07-27T05:14:13.317Z,98585.74
2022-07-27T05:15:22.452Z,98588.50
2022-07-27T05:16:29.941Z,98591.48
2022-07-27T05:17:37.661Z,98590.17
2022-07-27T05:18:47.401Z,98589.55
2022-07-27T05:19:54.827Z,98589.66
2022-07-27T05:21:04.036Z,98587.87
2022-07-27T05:22:12.093Z,98590.41
2022-07-27T05:23:19.020Z,98589.22
2022-07-27T05:24:27.279Z,98590.99
2022-07-27T05:25:34.593Z,98596.72
2022-07-27T05:26:42.088Z,98591.89
2022-07-27T05:27:54.019Z,98591.05
2022-07-27T05:29:02.269Z,98589.86
2022-07-27T05:30:10.812Z,98593.00
2022-07-27T05:31:20.740Z,98594.37
2022-07-27T05:32:28.118Z,98594.45
2022-07-27T05:33:36.303Z,98592.64
2022-07-27T05:34:47.472Z,98596.21
2022-07-27T05:35:55.043Z,98596.79
2022-07-27T05:37:02.415Z,98596.38
2022-07-27T05:38:09.722Z,98597.31
2022-07-27T05:39:17.909Z,98600.40
2022-07-27T05:40:26.246Z,98602.23
2022-07-27T05:41:33.429Z,98603.55
2022-07-27T05:42:46.374Z,98605.19
2022-07-27T05:43:54.074Z,98606.13
2022-07-27T05:45:04.801Z,98604.85
2022-07-27T05:46:15.209Z,98606.08
2022-07-27T05:47:22.757Z,98607.23
2022-07-27T05:48:30.418Z,98607.95
2022-07-27T05:49:37.918Z,98604.13
2022-07-27T05:50:45.248Z,98604.54
2022-07-27T05:51:53.559Z,98604.43
2022-07-27T05:53:03.427Z,98606.40
2022-07-27T05:54:12.139Z,98605.23
2022-07-27T05:55:21.368Z,98610.20
2022-07-27T05:56:29.628Z,98613.89
2022-07-27T05:57:36.829Z,98617.28
2022-07-27T05:58:44.706Z,98621.29
2022-07-27T05:59:55.562Z,98621.17
2022-07-27T06:01:02.988Z,98621.96
2022-07-27T06:02:10.521Z,98622.84
2022-07-27T06:03:18.323Z,98622.02
2022-07-27T06:04:26.637Z,98621.90
2022-07-27T06:05:33.696Z,98621.55
2022-07-27T06:06:59.980Z,98622.67
2022-07-27T06:08:11.128Z,98622.09
2022-07-27T06:09:18.807Z,98619.45
2022-07-27T06:10:29.033Z,98617.52
2022-07-27T06:11:36.219Z,98613.02
2022-07-27T06:12:46.087Z,98614.13
2022-07-27T06:13:54.264Z,98613.08
2022-07-27T06:15:02.465Z,98620.03
2022-07-27T06:16:12.770Z,98619.59
2022-07-27T06:17:22.027Z,98619.11
2022-07-27T06:18:29.764Z,98619.98
2022-07-27T06:19:40.880Z,98617.95
2022-07-27T06:20:48.136Z,98619.04
2022-07-27T06:21:55.407Z,98621.73
2022-07-27T06:23:08.231Z,98625.11
2022-07-27T06:24:19.412Z,98626.97
2022-07-27T06:25:34.403Z,98629.81
2022-07-27T06:26:46.416Z,98638.34
2022-07-27T06:27:55.191Z,98638.48
2022-07-27T06:29:09.790Z,98639.90
2022-07-27T06:30:19.635Z,98638.69
2022-07-27T06:31:35.203Z,98642.19
2022-07-27T06:32:47.696Z,98641.06
2022-07-27T06:33:58.540Z,98637.98
2022-07-27T06:35:10.138Z,98638.52
2022-07-27T06:36:19.440Z,98635.05
2022-07-27T06:37:26.982Z,98631.48
2022-07-27T06:38:37.730Z,98632.31
2022-07-27T06:39:44.967Z,98632.30
2022-07-27T06:40:54.165Z,98633.24
2022-07-27T06:42:01.252Z,98635.88
2022-07-27T06:43:13.463Z,98636.17
2022-07-27T06:44:21.019Z,98633.75
2022-07-27T06:45:28.767Z,98636.50
2022-07-27T06:46:35.896Z,98637.08
2022-07-27T06:47:49.762Z,98634.23
2022-07-27T06:48:59.806Z,98632.15
2022-07-27T06:50:07.506Z,98632.27
2022-07-27T06:51:17.715Z,98635.75
2022-07-27T06:52:24.884Z,98637.86
2022-07-27T06:53:36.189Z,98639.18
2022-07-27T06:54:44.898Z,98645.52
2022-07-27T06:55:53.196Z,98648.75
2022-07-27T06:57:04.608Z,98652.51
2022-07-27T06:58:14.302Z,98651.10
2022-07-27T06:59:22.304Z,98652.20
2022-07-27T07:00:32.637Z,98651.98
2022-07-27T07:01:39.784Z,98655.34
2022-07-27T07:02:59.320Z,98656.13
2022-07-27T07:04:09.635Z,98654.77
2022-07-27T07:05:20.597Z,98651.54
2022-07-27T07:06:28.295Z,98654.33
2022-07-27T07:07:35.931Z,98653.20
2022-07-27T07:08:43.525Z,98655.76
2022-07-27T07:09:51.894Z,98653.36
2022-07-27T07:10:59.992Z,98654.86
2022-07-27T07:12:07.955Z,98651.58
2022-07-27T07:13:15.194Z,98651.31
2022-07-27T07:14:22.634Z,98654.08
2022-07-27T07:15:30.909Z,98652.22
2022-07-27T07:16:39.654Z,98654.28
2022-07-27T07:17:47.170Z,98651.80
2022-07-27T07:18:56.449Z,98652.25
2022-07-27T07:20:03.756Z,98651.63
2022-07-27T07:21:12.640Z,98651.84
2022-07-27T07:22:19.768Z,98651.23
2022-07-27T07:23:30.457Z,98653.04
2022-07-27T07:24:40.079Z,98655.55
2022-07-27T07:25:47.430Z,98657.08
2022-07-27T07:26:55.848Z,98659.29
2022-07-27T07:28:02.702Z,98659.37
2022-07-27T07:29:13.189Z,98661.08
2022-07-27T07:30:22.754Z,98661.28
2022-07-27T07:31:30.281Z,98661.19
2022-07-27T07:32:40.595Z,98661.83
2022-07-27T07:33:49.023Z,98661.88
2022-07-27T07:34:57.673Z,98661.37
2022-07-27T07:36:13.591Z,98659.13
2022-07-27T07:37:23.812Z,98659.02
2022-07-27T07:38:44.097Z,98657.63
2022-07-27T07:39:54.036Z,98654.39
2022-07-27T07:41:04.224Z,98658.23
2022-07-27T07:42:11.518Z,98655.00
2022-07-27T07:43:19.106Z,98657.50
2022-07-27T07:44:30.097Z,98661.52
2022-07-27T07:45:50.898Z,98659.16
2022-07-27T07:47:00.766Z,98656.23
2022-07-27T07:48:09.322Z,98658.60
2022-07-27T07:49:37.698Z,98653.86
2022-07-27T07:50:51.954Z,98652.07
2022-07-27T07:52:01.906Z,98651.77
2022-07-27T07:53:11.705Z,98650.89
2022-07-27T07:54:25.143Z,98654.95
2022-07-27T07:55:32.200Z,98655.23
2022-07-27T07:56:39.422Z,98653.41
2022-07-27T07:57:47.667Z,98656.42
2022-07-27T07:58:58.227Z,98657.10
2022-07-27T08:00:06.901Z,98655.40
2022-07-27T08:01:20.838Z,98652.45
2022-07-27T08:02:30.191Z,98654.06
2022-07-27T08:03:40.758Z,98650.44
2022-07-27T08:04:48.439Z,98651.95
2022-07-27T08:05:55.501Z,98656.42
2022-07-27T08:07:02.738Z,98659.70
2022-07-27T08:08:09.893Z,98661.77
2022-07-27T08:09:18.834Z,98662.09
2022-07-27T08:10:27.513Z,98660.22
2022-07-27T08:11:37.889Z,98658.81
2022-07-27T08:12:48.739Z,98658.81
2022-07-27T08:13:56.326Z,98656.49
2022-07-27T08:15:07.063Z,98657.98
2022-07-27T08:16:14.580Z,98657.10
2022-07-27T08:17:22.232Z,98658.41
2022-07-27T08:18:31.097Z,98661.43
2022-07-27T08:19:40.409Z,98659.67
2022-07-27T08:20:48.573Z,98661.89
2022-07-27T08:21:56.516Z,98663.29
2022-07-27T08:23:03.610Z,98663.61
2022-07-27T08:24:12.697Z,98664.79
2022-07-27T08:25:19.748Z,98668.96
2022-07-27T08:26:30.033Z,98664.63
2022-07-27T08:27:40.499Z,98663.50
2022-07-27T08:28:48.297Z,98663.81
2022-07-27T08:29:58.774Z,98660.31
2022-07-27T08:31:15.923Z,98656.86
2022-07-27T08:32:31.409Z,98654.67
2022-07-27T08:33:41.565Z,98653.42
2022-07-27T08:34:51.765Z,98653.83
2022-07-27T08:36:00.834Z,98655.13
2022-07-27T08:37:12.040Z,98658.59
2022-07-27T08:38:28.719Z,98659.34
2022-07-27T08:41:08.661Z,98658.34
2022-07-27T08:42:15.616Z,98659.59
2022-07-27T08:43:25.262Z,98660.39
2022-07-27T08:44:33.457Z,98657.58
2022-07-27T08:45:42.950Z,98660.38
2022-07-27T08:46:53.083Z,98659.54
2022-07-27T08:48:04.330Z,98659.23
2022-07-27T08:49:11.862Z,98659.62
2022-07-27T08:50:26.449Z,98658.52
2022-07-27T08:51:37.169Z,98658.91
2022-07-27T08:52:47.752Z,98658.23
2022-07-27T08:53:55.196Z,98659.81
2022-07-27T08:55:02.654Z,98660.99
2022-07-27T08:56:11.030Z,98661.11
2022-07-27T08:57:20.888Z,98660.82
2022-07-27T08:58:30.052Z,98658.45
2022-07-27T08:59:37.913Z,98661.60
2022-07-27T09:00:52.248Z,98665.64
2022-07-27T09:01:59.698Z,98664.78
2022-07-27T09:03:19.801Z,98665.35
2022-07-27T09:04:34.849Z,98663.69
2022-07-27T09:05:51.223Z,98657.39
2022-07-27T09:07:00.235Z,98654.38
2022-07-27T09:08:16.278Z,98651.30
2022-07-27T09:09:27.711Z,98650.63
2022-07-27T09:10:37.637Z,98650.94
2022-07-27T09:11:47.168Z,98653.15
2022-07-27T09:12:57.143Z,98661.64
2022-07-27T09:14:08.446Z,98660.66
2022-07-27T09:15:19.625Z,98661.91
2022-07-27T09:17:02.944Z,98661.30
2022-07-27T09:18:03.394Z,98665.77
2022-07-27T09:19:12.607Z,98664.64
2022-07-27T09:20:23.745Z,98665.73
2022-07-27T09:21:31.227Z,98661.47
2022-07-27T09:22:48.071Z,98662.20
2022-07-27T09:24:44.279Z,98662.44
2022-07-27T09:26:03.652Z,98660.09
2022-07-27T09:27:18.044Z,98660.09
2022-07-27T09:28:31.855Z,98660.13
2022-07-27T09:29:39.180Z,98660.80
2022-07-27T09:30:49.692Z,98658.77
2022-07-27T09:31:58.095Z,98655.95
2022-07-27T09:33:08.644Z,98654.09
2022-07-27T09:34:35.567Z,98649.23
2022-07-27T09:35:42.863Z,98646.00
2022-07-27T09:36:57.794Z,98645.19
2022-07-27T09:38:24.011Z,98643.26
2022-07-27T09:39:31.461Z,98644.91
2022-07-27T09:40:38.880Z,98647.09
2022-07-27T09:41:47.761Z,98645.23
2022-07-27T09:43:52.067Z,98642.60
2022-07-27T09:44:44.829Z,98641.11
2022-07-27T09:45:55.098Z,98639.61
2022-07-27T09:47:03.745Z,98634.61
2022-07-27T09:48:19.295Z,98631.58
2022-07-27T09:49:39.160Z,98632.35
2022-07-27T09:51:55.642Z,98630.65
2022-07-27T09:52:39.161Z,98633.86
2022-07-27T09:53:46.854Z,98633.64
2022-07-27T09:54:55.459Z,98634.16
2022-07-27T09:56:17.269Z,98631.63
2022-07-27T09:57:27.528Z,98627.60
2022-07-27T09:58:46.959Z,98628.51
2022-07-27T10:00:11.752Z,98629.85
2022-07-27T10:01:49.918Z,98632.52
2022-07-27T10:03:03.307Z,98635.25
2022-07-27T10:04:10.769Z,98634.88
2022-07-27T10:05:23.892Z,98635.17
2022-07-27T10:06:47.794Z,98631.05
2022-07-27T10:08:01.951Z,98627.42
2022-07-27T10:09:10.446Z,98626.21
2022-07-27T10:10:18.194Z,98624.56
2022-07-27T10:11:25.985Z,98621.80
2022-07-27T10:12:35.134Z,98620.30
2022-07-27T10:13:44.290Z,98618.89
2022-07-27T10:14:52.243Z,98619.34
2022-07-27T10:16:00.395Z,98620.91
2022-07-27T10:17:09.303Z,98621.31
2022-07-27T10:18:32.411Z,98619.05
2022-07-27T10:19:47.992Z,98619.83
2022-07-27T10:20:55.515Z,98618.77
2022-07-27T10:22:02.898Z,98620.48
2022-07-27T10:23:18.995Z,98623.41
2022-07-27T10:24:27.337Z,98621.77
2022-07-27T10:25:38.093Z,98624.09
2022-07-27T10:26:46.778Z,98624.23
2022-07-27T10:28:16.090Z,98623.01
2022-07-27T10:29:27.018Z,98624.30
2022-07-27T10:30:35.898Z,98626.27
2022-07-27T10:31:57.855Z,98626.34
2022-07-27T10:33:35.097Z,98626.69
2022-07-27T10:34:46.194Z,98621.44
2022-07-27T10:35:53.565Z,98619.79
2022-07-27T10:37:04.371Z,98619.06
2022-07-27T10:38:18.019Z,98618.33
2022-07-27T10:39:39.005Z,98617.38
2022-07-27T10:40:46.350Z,98617.73
2022-07-27T10:41:53.418Z,98615.13
2022-07-27T10:43:20.751Z,98616.65
2022-07-27T10:44:31.232Z,98618.34
2022-07-27T10:45:50.190Z,98617.58
2022-07-27T10:47:04.769Z,98617.27
2022-07-27T10:48:20.416Z,98615.56
2022-07-27T10:49:40.402Z,98615.64
2022-07-27T10:50:50.436Z,98612.48
2022-07-27T10:52:01.594Z,98609.60
2022-07-27T10:53:11.175Z,98612.33
2022-07-27T10:54:28.337Z,98611.23
2022-07-27T10:55:45.657Z,98613.15
2022-07-27T10:56:53.811Z,98612.48
2022-07-27T10:58:13.407Z,98610.30
2022-07-27T11:00:07.486Z,98607.59
2022-07-27T11:01:15.966Z,98606.03
2022-07-27T11:02:40.040Z,98604.38
2022-07-27T11:03:52.512Z,98602.27
2022-07-27T11:05:01.768Z,98604.89
2022-07-27T11:07:58.186Z,98608.15
2022-07-27T11:10:48.443Z,98609.09
2022-07-27T11:11:55.882Z,98609.11
2022-07-27T11:13:09.679Z,98608.52
2022-07-27T11:14:30.079Z,98606.82
2022-07-27T11:15:40.769Z,98608.93
2022-07-27T11:16:55.504Z,98610.01
2022-07-27T11:18:07.471Z,98616.21
2022-07-27T11:19:17.993Z,98615.77
2022-07-27T11:20:31.321Z,98616.41
2022-07-27T11:21:40.238Z,98614.94
2022-07-27T11:23:48.718Z,98613.56
2022-07-27T11:24:19.377Z,98610.34
2022-07-27T11:25:26.260Z,98611.66
2022-07-27T11:26:38.939Z,98608.67
2022-07-27T11:27:52.843Z,98610.31
2022-07-27T11:29:01.747Z,98614.14
2022-07-27T11:30:29.652Z,98614.34
2022-07-27T11:31:54.685Z,98613.05
2022-07-27T11:33:06.118Z,98611.94
2022-07-27T11:34:15.552Z,98614.46
2022-07-27T11:35:26.790Z,98612.69
2022-07-27T11:36:41.022Z,98614.23
2022-07-27T11:38:04.155Z,98616.05
2022-07-27T11:39:43.659Z,98619.11
2022-07-27T11:40:58.078Z,98622.34
2022-07-27T11:42:20.880Z,98619.72
2022-07-27T11:43:38.168Z,98622.10
2022-07-27T11:44:47.519Z,98623.43
2022-07-27T11:45:56.220Z,98623.13
2022-07-27T11:47:04.906Z,98621.78
2022-07-27T11:48:12.205Z,98619.11
2022-07-27T11:49:32.300Z,98620.41
2022-07-27T11:50:59.772Z,98617.86
2022-07-27T11:52:09.609Z,98616.50
2022-07-27T11:53:22.616Z,98612.55
2022-07-27T11:54:45.654Z,98614.18
2022-07-27T11:55:52.931Z,98611.98
2022-07-27T11:57:04.216Z,98610.34
2022-07-27T11:58:11.997Z,98611.42
2022-07-27T11:59:23.680Z,98614.73
2022-07-27T12:00:43.420Z,98612.16
2022-07-27T12:01:55.908Z,98614.10
2022-07-27T12:03:03.353Z,98617.16
2022-07-27T12:04:30.377Z,98616.35
2022-07-27T12:05:39.078Z,98616.04
2022-07-27T12:06:56.084Z,98615.25
2022-07-27T12:08:06.351Z,98617.30
2022-07-27T12:09:16.073Z,98615.36
2022-07-27T12:10:24.916Z,98615.98
2022-07-27T12:11:55.551Z,98616.54
2022-07-27T12:13:05.997Z,98617.10
2022-07-27T12:14:15.140Z,98618.59
2022-07-27T12:16:56.261Z,98615.21
2022-07-27T12:18:05.000Z,98618.39
2022-07-27T12:19:22.877Z,98620.84
2022-07-27T12:20:36.867Z,98619.45
2022-07-27T12:21:53.522Z,98619.60
2022-07-27T12:23:09.310Z,98623.05
2022-07-27T12:24:18.561Z,98619.42
2022-07-27T12:25:30.958Z,98623.89
2022-07-27T12:26:38.928Z,98623.13
2022-07-27T12:28:13.769Z,98625.85
2022-07-27T12:29:23.543Z,98624.52
2022-07-27T12:30:34.636Z,98625.73
2022-07-27T12:31:49.993Z,98626.75
2022-07-27T12:32:57.573Z,98630.31
2022-07-27T12:34:07.699Z,98632.23
2022-07-27T12:35:29.504Z,98629.94
2022-07-27T12:36:43.999Z,98631.26
2022-07-27T12:37:58.940Z,98631.84
2022-07-27T12:39:07.733Z,98632.89
2022-07-27T12:40:22.655Z,98632.77
2022-07-27T12:41:39.606Z,98635.89
2022-07-27T12:42:46.634Z,98635.52
2022-07-27T12:44:16.902Z,98635.34
2022-07-27T12:45:30.816Z,98640.70
2022-07-27T12:47:21.673Z,98644.15
2022-07-27T12:48:42.937Z,98644.76
2022-07-27T12:50:20.316Z,98646.07
2022-07-27T12:51:28.287Z,98646.95
2022-07-27T12:52:36.885Z,98648.98
2022-07-27T12:53:45.787Z,98650.78
2022-07-27T12:54:53.305Z,98650.00
2022-07-27T12:56:03.560Z,98657.05
2022-07-27T12:57:10.882Z,98659.11
2022-07-27T12:58:18.540Z,98662.14
2022-07-27T12:59:26.511Z,98662.02
2022-07-27T13:00:34.414Z,98661.75
2022-07-27T13:01:41.958Z,98660.17
2022-07-27T13:02:50.172Z,98660.14
2022-07-27T13:03:57.895Z,98660.55
2022-07-27T13:05:06.932Z,98662.54
2022-07-27T13:06:17.272Z,98663.26
2022-07-27T13:07:25.007Z,98661.70
2022-07-27T13:08:35.189Z,98660.77
2022-07-27T13:10:01.970Z,98664.09
2022-07-27T13:11:13.686Z,98664.52
2022-07-27T13:12:25.417Z,98665.02
2022-07-27T13:13:32.455Z,98666.27
2022-07-27T13:14:43.417Z,98669.14
2022-07-27T13:15:52.315Z,98669.42
2022-07-27T13:17:00.076Z,98670.11
2022-07-27T13:18:08.302Z,98667.90
2022-07-27T13:19:16.770Z,98668.86
2022-07-27T13:20:25.907Z,98669.96
2022-07-27T13:21:35.083Z,98667.27
2022-07-27T13:22:42.364Z,98665.86
2022-07-27T13:23:49.668Z,98663.48
2022-07-27T13:24:59.155Z,98666.21
2022-07-27T13:26:06.404Z,98666.77
2022-07-27T13:27:13.830Z,98670.73
2022-07-27T13:28:24.013Z,98673.56
2022-07-27T13:29:34.257Z,98676.92
2022-07-27T13:30:42.004Z,98678.27
2022-07-27T13:31:57.098Z,98678.96
2022-07-27T13:33:08.575Z,98678.92
2022-07-27T13:34:17.257Z,98679.83
2022-07-27T13:35:27.113Z,98678.64
2022-07-27T13:36:37.430Z,98677.28
2022-07-27T13:37:46.846Z,98680.76
2022-07-27T13:38:54.722Z,98682.04
2022-07-27T13:40:02.236Z,98686.27
2022-07-27T13:41:11.012Z,98683.27
2022-07-27T13:42:18.000Z,98685.17
2022-07-27T13:43:26.136Z,98682.91
2022-07-27T13:45:00.990Z,98684.13
2022-07-27T13:46:04.889Z,98680.71
2022-07-27T13:47:12.176Z,98675.91
2022-07-27T13:48:19.565Z,98673.54
2022-07-27T13:49:27.099Z,98673.52
2022-07-27T13:50:35.854Z,98676.02
2022-07-27T13:51:44.705Z,98675.92
2022-07-27T13:52:55.021Z,98673.89
2022-07-27T13:54:03.657Z,98672.86
2022-07-27T13:55:13.835Z,98670.87
2022-07-27T13:56:23.810Z,98668.95
2022-07-27T13:57:31.955Z,98670.98
2022-07-27T13:58:42.283Z,98670.63
2022-07-27T13:59:49.540Z,98672.98
2022-07-27T14:01:03.997Z,98672.58
2022-07-27T14:02:20.668Z,98673.50
2022-07-27T14:03:34.658Z,98673.15
2022-07-27T14:04:42.057Z,98672.52
2022-07-27T14:05:54.745Z,98672.73
2022-07-27T14:07:02.667Z,98670.14
2022-07-27T14:08:12.103Z,98668.56
2022-07-27T14:09:23.334Z,98665.55
2022-07-27T14:10:33.290Z,98665.48
2022-07-27T14:11:41.152Z,98668.72
2022-07-27T14:13:08.337Z,98673.65
2022-07-27T14:14:17.287Z,98673.88
2022-07-27T14:15:34.229Z,98674.19
2022-07-27T14:17:02.856Z,98677.70
2022-07-27T14:18:14.933Z,98678.12
2022-07-27T14:19:23.694Z,98681.02
2022-07-27T14:20:33.896Z,98682.38
2022-07-27T14:21:43.203Z,98684.98
2022-07-27T14:22:53.067Z,98683.88
2022-07-27T14:24:05.679Z,98683.17
2022-07-27T14:25:13.147Z,98685.15
2022-07-27T14:26:23.720Z,98687.05
2022-07-27T14:27:37.560Z,98687.45
2022-07-27T14:28:49.026Z,98686.36
2022-07-27T14:29:59.384Z,98684.35
2022-07-27T14:31:09.319Z,98686.81
2022-07-27T14:32:17.774Z,98684.06
2022-07-27T14:33:33.259Z,98687.83
2022-07-27T14:34:50.964Z,98682.86
2022-07-27T14:35:59.853Z,98682.52
2022-07-27T14:37:08.056Z,98682.08
2022-07-27T14:38:29.719Z,98680.98
2022-07-27T14:39:43.555Z,98683.83
2022-07-27T14:40:52.432Z,98687.67
2022-07-27T14:42:01.400Z,98689.44
2022-07-27T14:43:09.910Z,98688.29
2022-07-27T14:44:21.729Z,98686.03
2022-07-27T14:45:44.048Z,98686.25